< < Back
Terminal Aerodrome Forecast


Current Version              Previous Versions:   1  2  3  4  5  6  7  8  9  

Terminal Aerodrome Forecast

652
FTUS42 KFFC 271734
TAFATL
TAF
KATL 271734Z 2718/2824 32016G26KT P6SM BKN035 BKN050
     FM272300 33013KT P6SM SCT040 BKN060
     FM280200 33008KT P6SM FEW060
     FM281500 35006KT P6SM SKC
     FM282000 16005KT P6SM SKC=

Latest METAR

538
SAUS70 KWBC 272300
MTRATL
METAR KATL 272252Z 35011KT 10SM FEW045 07/M01 A3001 RMK AO2 SLP169
T00721011


USA.gov is the U.S. government's official web portal to all federal, state and local government web resources and services.